createdAt,value
2022-07-31T00:00:45.299Z,18.70
2022-07-31T00:01:48.208Z,18.71
2022-07-31T00:02:51.679Z,18.71
2022-07-31T00:03:54.942Z,18.71
2022-07-31T00:04:57.895Z,18.71
2022-07-31T00:06:00.876Z,18.71
2022-07-31T00:07:04.625Z,18.72
2022-07-31T00:08:07.861Z,18.71
2022-07-31T00:09:51.633Z,18.72
2022-07-31T00:10:34.161Z,18.71
2022-07-31T00:11:37.136Z,18.72
2022-07-31T00:12:40.066Z,18.72
2022-07-31T00:13:57.097Z,18.73
2022-07-31T00:15:02.060Z,18.72
2022-07-31T00:16:05.095Z,18.71
2022-07-31T00:17:08.084Z,18.71
2022-07-31T00:18:11.779Z,18.72
2022-07-31T00:19:14.812Z,18.72
2022-07-31T00:20:18.225Z,18.71
2022-07-31T00:21:21.218Z,18.71
2022-07-31T00:22:24.239Z,18.71
2022-07-31T00:23:27.145Z,18.71
2022-07-31T00:24:30.367Z,18.70
2022-07-31T00:25:33.531Z,18.70
2022-07-31T00:26:36.480Z,18.70
2022-07-31T00:27:40.201Z,18.70
2022-07-31T00:28:43.124Z,18.70
2022-07-31T00:29:46.034Z,18.69
2022-07-31T00:30:49.210Z,18.67
2022-07-31T00:31:52.152Z,18.65
2022-07-31T00:32:55.183Z,18.65
2022-07-31T00:33:58.236Z,18.65
2022-07-31T00:35:01.681Z,18.66
2022-07-31T00:36:04.982Z,18.64
2022-07-31T00:37:10.832Z,18.64
2022-07-31T00:38:29.079Z,18.64
2022-07-31T00:39:32.711Z,18.60
2022-07-31T00:40:35.723Z,18.57
2022-07-31T00:41:43.116Z,18.56
2022-07-31T00:42:46.211Z,18.55
2022-07-31T00:43:49.249Z,18.55
2022-07-31T00:44:52.774Z,18.54
2022-07-31T00:45:59.126Z,18.53
2022-07-31T00:47:02.912Z,18.51
2022-07-31T00:48:07.382Z,18.51
2022-07-31T00:49:10.857Z,18.50
2022-07-31T00:50:13.890Z,18.50
2022-07-31T00:51:18.191Z,18.49
2022-07-31T00:52:21.253Z,18.49
2022-07-31T00:53:24.233Z,18.49
2022-07-31T00:54:27.221Z,18.46
2022-07-31T00:55:30.264Z,18.45
2022-07-31T00:56:53.174Z,18.44
2022-07-31T00:57:56.312Z,18.42
2022-07-31T00:58:59.517Z,18.42
2022-07-31T01:00:02.411Z,18.42
2022-07-31T01:01:05.447Z,18.40
2022-07-31T01:02:08.438Z,18.38
2022-07-31T01:03:11.501Z,18.37
2022-07-31T01:04:16.427Z,18.35
2022-07-31T01:05:19.423Z,18.34
2022-07-31T01:06:22.519Z,18.32
2022-07-31T01:07:26.004Z,18.31
2022-07-31T01:08:29.100Z,18.30
2022-07-31T01:09:32.191Z,18.28
2022-07-31T01:10:53.753Z,18.26
2022-07-31T01:12:02.410Z,18.24
2022-07-31T01:13:08.438Z,18.24
2022-07-31T01:14:12.221Z,18.24
2022-07-31T01:15:16.344Z,18.25
2022-07-31T01:16:19.538Z,18.26
2022-07-31T01:17:23.449Z,18.27
2022-07-31T01:18:27.510Z,18.27
2022-07-31T01:19:39.723Z,18.27
2022-07-31T01:20:49.762Z,18.26
2022-07-31T01:22:33.097Z,18.26
2022-07-31T01:23:51.074Z,18.22
2022-07-31T01:25:26.898Z,18.23
2022-07-31T01:26:43.754Z,18.23
2022-07-31T01:27:56.290Z,18.24
2022-07-31T01:29:15.293Z,18.23
2022-07-31T01:30:18.661Z,18.23
2022-07-31T01:32:49.675Z,18.24
2022-07-31T01:33:57.575Z,18.24
2022-07-31T01:35:03.692Z,18.24
2022-07-31T01:36:09.415Z,18.23
2022-07-31T01:37:21.427Z,18.23
2022-07-31T01:38:27.263Z,18.23
2022-07-31T01:39:33.752Z,18.23
2022-07-31T01:40:48.261Z,18.23
2022-07-31T01:41:53.360Z,18.22
2022-07-31T01:43:01.881Z,18.22
2022-07-31T01:44:05.735Z,18.22
2022-07-31T01:45:10.895Z,18.21
2022-07-31T01:46:15.954Z,18.22
2022-07-31T01:47:20.579Z,18.21
2022-07-31T01:48:23.849Z,18.21
2022-07-31T01:49:28.247Z,18.21
2022-07-31T01:50:43.730Z,18.21
2022-07-31T01:51:48.098Z,18.21
2022-07-31T01:52:51.755Z,18.21
2022-07-31T01:53:55.874Z,18.21
2022-07-31T01:54:59.769Z,18.20
2022-07-31T01:56:04.471Z,18.21
2022-07-31T01:57:14.319Z,18.21
2022-07-31T01:58:26.734Z,18.21
2022-07-31T01:59:37.260Z,18.22
2022-07-31T02:00:54.858Z,18.23
2022-07-31T02:02:01.395Z,18.23
2022-07-31T02:03:09.621Z,18.24
2022-07-31T02:04:14.404Z,18.24
2022-07-31T02:05:18.530Z,18.23
2022-07-31T02:06:23.341Z,18.23
2022-07-31T02:07:27.405Z,18.23
2022-07-31T02:08:32.093Z,18.24
2022-07-31T02:09:36.112Z,18.24
2022-07-31T02:10:39.833Z,18.24
2022-07-31T02:11:53.525Z,18.24
2022-07-31T02:13:06.943Z,18.24
2022-07-31T02:14:10.646Z,18.25
2022-07-31T02:15:14.797Z,18.25
2022-07-31T02:16:20.276Z,18.24
2022-07-31T02:17:26.072Z,18.24
2022-07-31T02:18:51.138Z,18.24
2022-07-31T02:20:00.873Z,18.25
2022-07-31T02:21:04.300Z,18.25
2022-07-31T02:22:07.537Z,18.25
2022-07-31T02:23:12.018Z,18.26
2022-07-31T02:24:15.418Z,18.26
2022-07-31T02:25:18.333Z,18.25
2022-07-31T02:26:21.934Z,18.25
2022-07-31T02:27:53.999Z,18.25
2022-07-31T02:28:51.575Z,18.26
2022-07-31T02:29:55.605Z,18.26
2022-07-31T02:30:59.075Z,18.26
2022-07-31T02:32:03.432Z,18.26
2022-07-31T02:33:09.150Z,18.26
2022-07-31T02:34:13.676Z,18.26
2022-07-31T02:35:17.345Z,18.26
2022-07-31T02:36:21.382Z,18.26
2022-07-31T02:37:25.516Z,18.27
2022-07-31T02:38:29.908Z,18.26
2022-07-31T02:39:34.450Z,18.26
2022-07-31T02:40:37.986Z,18.24
2022-07-31T02:41:44.872Z,18.25
2022-07-31T02:42:49.076Z,18.26
2022-07-31T02:43:52.313Z,18.26
2022-07-31T02:44:57.133Z,18.26
2022-07-31T02:46:03.521Z,18.27
2022-07-31T02:47:07.494Z,18.26
2022-07-31T02:48:10.911Z,18.25
2022-07-31T02:49:16.778Z,18.25
2022-07-31T02:50:20.609Z,18.26
2022-07-31T02:51:24.462Z,18.27
2022-07-31T02:52:28.928Z,18.27
2022-07-31T02:53:32.337Z,18.27
2022-07-31T02:54:39.519Z,18.27
2022-07-31T02:55:44.589Z,18.28
2022-07-31T02:56:47.842Z,18.29
2022-07-31T02:57:51.380Z,18.30
2022-07-31T02:58:55.937Z,18.29
2022-07-31T03:00:14.683Z,18.29
2022-07-31T03:01:18.408Z,18.29
2022-07-31T03:02:21.476Z,18.29
2022-07-31T03:03:24.328Z,18.30
2022-07-31T03:04:27.314Z,18.31
2022-07-31T03:05:31.372Z,18.30
2022-07-31T03:06:34.457Z,18.30
2022-07-31T03:07:37.533Z,18.31
2022-07-31T03:08:40.534Z,18.31
2022-07-31T03:09:43.770Z,18.32
2022-07-31T03:11:05.066Z,18.32
2022-07-31T03:12:08.068Z,18.33
2022-07-31T03:13:12.113Z,18.34
2022-07-31T03:14:15.365Z,18.34
2022-07-31T03:15:19.806Z,18.35
2022-07-31T03:16:23.778Z,18.36
2022-07-31T03:17:38.209Z,18.37
2022-07-31T03:18:45.699Z,18.39
2022-07-31T03:19:49.472Z,18.41
2022-07-31T03:20:53.081Z,18.43
2022-07-31T03:21:56.412Z,18.45
2022-07-31T03:23:00.969Z,18.45
2022-07-31T03:24:04.679Z,18.46
2022-07-31T03:25:08.730Z,18.44
2022-07-31T03:26:11.944Z,18.43
2022-07-31T03:27:15.084Z,18.44
2022-07-31T03:28:19.398Z,18.45
2022-07-31T03:29:41.117Z,18.44
2022-07-31T03:30:55.271Z,18.43
2022-07-31T03:32:01.193Z,18.43
2022-07-31T03:33:04.543Z,18.43
2022-07-31T03:34:08.535Z,18.44
2022-07-31T03:35:11.878Z,18.44
2022-07-31T03:36:15.671Z,18.44
2022-07-31T03:37:18.675Z,18.44
2022-07-31T03:38:41.157Z,18.43
2022-07-31T03:39:45.366Z,18.43
2022-07-31T03:40:48.937Z,18.44
2022-07-31T03:41:52.288Z,18.44
2022-07-31T03:42:56.439Z,18.43
2022-07-31T03:43:59.542Z,18.42
2022-07-31T03:45:03.795Z,18.42
2022-07-31T03:46:07.423Z,18.42
2022-07-31T03:47:10.547Z,18.42
2022-07-31T03:48:14.036Z,18.42
2022-07-31T03:49:17.577Z,18.43
2022-07-31T03:50:20.872Z,18.44
2022-07-31T03:51:24.154Z,18.44
2022-07-31T03:52:27.699Z,18.45
2022-07-31T03:53:31.476Z,18.46
2022-07-31T03:54:34.607Z,18.46
2022-07-31T03:55:57.630Z,18.48
2022-07-31T03:57:00.925Z,18.50
2022-07-31T03:58:06.426Z,18.49
2022-07-31T03:59:11.378Z,18.49
2022-07-31T04:00:17.745Z,18.50
2022-07-31T04:01:21.781Z,18.51
2022-07-31T04:02:26.156Z,18.51
2022-07-31T04:03:38.297Z,18.51
2022-07-31T04:05:00.389Z,18.52
2022-07-31T04:06:03.401Z,18.53
2022-07-31T04:07:06.405Z,18.54
2022-07-31T04:08:09.990Z,18.55
2022-07-31T04:09:15.582Z,18.56
2022-07-31T04:10:23.077Z,18.57
2022-07-31T04:11:25.946Z,18.59
2022-07-31T04:12:28.945Z,18.61
2022-07-31T04:13:32.037Z,18.62
2022-07-31T04:14:35.105Z,18.63
2022-07-31T04:15:38.221Z,18.65
2022-07-31T04:16:41.255Z,18.65
2022-07-31T04:17:44.405Z,18.66
2022-07-31T04:18:50.642Z,18.67
2022-07-31T04:19:54.589Z,18.68
2022-07-31T04:20:57.598Z,18.69
2022-07-31T04:22:01.214Z,18.70
2022-07-31T04:23:04.762Z,18.71
2022-07-31T04:24:42.384Z,18.72
2022-07-31T04:26:03.738Z,18.74
2022-07-31T04:27:16.493Z,18.76
2022-07-31T04:28:20.063Z,18.76
2022-07-31T04:29:23.230Z,18.77
2022-07-31T04:30:26.322Z,18.77
2022-07-31T04:31:30.972Z,18.77
2022-07-31T04:32:34.803Z,18.78
2022-07-31T04:33:48.881Z,18.79
2022-07-31T04:34:54.614Z,18.80
2022-07-31T04:35:57.762Z,18.81
2022-07-31T04:37:00.697Z,18.82
2022-07-31T04:38:03.613Z,18.83
2022-07-31T04:39:10.570Z,18.84
2022-07-31T04:40:14.124Z,18.85
2022-07-31T04:41:17.937Z,18.88
2022-07-31T04:42:21.758Z,18.89
2022-07-31T04:43:24.721Z,18.90
2022-07-31T04:44:27.549Z,18.91
2022-07-31T04:45:32.307Z,18.94
2022-07-31T04:46:35.462Z,18.94
2022-07-31T04:47:38.723Z,18.94
2022-07-31T04:48:41.908Z,18.95
2022-07-31T04:49:48.637Z,18.95
2022-07-31T04:51:02.796Z,18.96
2022-07-31T04:52:07.196Z,18.97
2022-07-31T04:53:10.881Z,18.96
2022-07-31T04:54:16.445Z,18.97
2022-07-31T04:55:21.072Z,18.99
2022-07-31T04:56:37.502Z,19.00
2022-07-31T04:57:40.672Z,19.00
2022-07-31T04:58:43.633Z,19.01
2022-07-31T04:59:57.870Z,19.01
2022-07-31T05:01:03.205Z,19.02
2022-07-31T05:02:07.325Z,19.03
2022-07-31T05:03:10.879Z,19.04
2022-07-31T05:04:16.313Z,19.05
2022-07-31T05:05:19.276Z,19.06
2022-07-31T05:06:23.049Z,19.07
2022-07-31T05:07:26.678Z,19.09
2022-07-31T05:08:32.363Z,19.10
2022-07-31T05:09:36.455Z,19.11
2022-07-31T05:11:00.346Z,19.11
2022-07-31T05:12:04.802Z,19.11
2022-07-31T05:13:08.550Z,19.12
2022-07-31T05:14:12.533Z,19.13
2022-07-31T05:15:17.244Z,19.14
2022-07-31T05:16:21.138Z,19.16
2022-07-31T05:17:24.019Z,19.17
2022-07-31T05:18:47.770Z,19.19
2022-07-31T05:20:16.492Z,19.21
2022-07-31T05:21:51.364Z,19.23
2022-07-31T05:23:08.665Z,19.26
2022-07-31T05:24:32.748Z,19.28
2022-07-31T05:25:46.269Z,19.29
2022-07-31T05:26:50.165Z,19.31
2022-07-31T05:27:53.042Z,19.31
2022-07-31T05:28:58.736Z,19.32
2022-07-31T05:30:02.690Z,19.35
2022-07-31T05:31:07.486Z,19.37
2022-07-31T05:32:10.687Z,19.39
2022-07-31T05:33:13.974Z,19.41
2022-07-31T05:34:19.628Z,19.43
2022-07-31T05:35:22.485Z,19.44
2022-07-31T05:36:27.110Z,19.47
2022-07-31T05:37:30.079Z,19.47
2022-07-31T05:38:35.433Z,19.47
2022-07-31T05:39:50.611Z,19.48
2022-07-31T05:41:12.280Z,19.50
2022-07-31T05:42:38.767Z,19.51
2022-07-31T05:44:05.635Z,19.52
2022-07-31T05:45:21.572Z,19.54
2022-07-31T05:46:24.578Z,19.56
2022-07-31T05:47:40.457Z,19.58
2022-07-31T05:48:45.592Z,19.61
2022-07-31T05:49:48.994Z,19.62
2022-07-31T05:50:52.703Z,19.64
2022-07-31T05:51:55.663Z,19.66
2022-07-31T05:52:58.605Z,19.67
2022-07-31T05:54:21.211Z,19.69
2022-07-31T05:55:43.267Z,19.70
2022-07-31T05:57:32.988Z,19.70
2022-07-31T05:58:38.253Z,19.71
2022-07-31T05:59:41.289Z,19.73
2022-07-31T06:00:45.201Z,19.75
2022-07-31T06:01:48.285Z,19.77
2022-07-31T06:02:51.541Z,19.78
2022-07-31T06:04:12.873Z,19.80
2022-07-31T06:05:21.267Z,19.82
2022-07-31T06:06:24.280Z,19.83
2022-07-31T06:07:28.430Z,19.86
2022-07-31T06:08:31.945Z,19.87
2022-07-31T06:09:35.065Z,19.90
2022-07-31T06:10:38.404Z,19.95
2022-07-31T06:11:41.924Z,19.97
2022-07-31T06:12:44.910Z,19.99
2022-07-31T06:13:47.963Z,20.00
2022-07-31T06:14:56.237Z,20.02
2022-07-31T06:16:15.999Z,20.04
2022-07-31T06:17:19.056Z,20.04
2022-07-31T06:18:22.482Z,20.07
2022-07-31T06:19:26.211Z,20.08
2022-07-31T06:20:29.606Z,20.10
2022-07-31T06:21:32.784Z,20.12
2022-07-31T06:22:36.047Z,20.14
2022-07-31T06:23:39.334Z,20.16
2022-07-31T06:24:51.641Z,20.18
2022-07-31T06:25:54.987Z,20.19
2022-07-31T06:27:01.106Z,20.18
2022-07-31T06:28:10.228Z,20.19
2022-07-31T06:29:14.073Z,20.20
2022-07-31T06:30:17.302Z,20.21
2022-07-31T06:31:21.175Z,20.22
2022-07-31T06:32:24.364Z,20.22
2022-07-31T06:33:37.467Z,20.24
2022-07-31T06:34:41.617Z,20.27
2022-07-31T06:35:44.948Z,20.30
2022-07-31T06:37:05.039Z,20.34
2022-07-31T06:38:08.919Z,20.37
2022-07-31T06:39:54.456Z,20.40
2022-07-31T06:41:11.989Z,20.43
2022-07-31T06:42:26.021Z,20.46
2022-07-31T06:43:41.069Z,20.50
2022-07-31T06:45:02.614Z,20.55
2022-07-31T06:46:24.338Z,20.60
2022-07-31T06:47:46.167Z,20.63
2022-07-31T06:49:08.889Z,20.67
2022-07-31T06:50:12.243Z,20.72
2022-07-31T06:51:32.360Z,20.75
2022-07-31T06:52:35.674Z,20.78
2022-07-31T06:53:38.924Z,20.79
2022-07-31T06:54:43.056Z,20.79
2022-07-31T06:55:46.181Z,20.81
2022-07-31T06:56:49.371Z,20.83
2022-07-31T06:57:52.370Z,20.85
2022-07-31T06:58:55.765Z,20.88
2022-07-31T06:59:58.939Z,20.93
2022-07-31T07:01:01.988Z,20.96
2022-07-31T07:02:05.389Z,21.00
2022-07-31T07:03:09.839Z,21.05
2022-07-31T07:04:12.797Z,21.07
2022-07-31T07:05:15.897Z,21.10
2022-07-31T07:06:19.385Z,21.12
2022-07-31T07:07:22.540Z,21.17
2022-07-31T07:08:26.338Z,21.18
2022-07-31T07:09:29.912Z,21.21
2022-07-31T07:10:33.087Z,21.23
2022-07-31T07:11:36.127Z,21.25
2022-07-31T07:12:39.474Z,21.27
2022-07-31T07:13:45.912Z,21.31
2022-07-31T07:14:50.711Z,21.36
2022-07-31T07:15:53.893Z,21.38
2022-07-31T07:17:02.022Z,21.39
2022-07-31T07:18:05.157Z,21.38
2022-07-31T07:19:14.718Z,21.37
2022-07-31T07:20:18.668Z,21.35
2022-07-31T07:21:22.088Z,21.33
2022-07-31T07:22:31.806Z,21.32
2022-07-31T07:23:36.816Z,21.32
2022-07-31T07:24:51.924Z,21.33
2022-07-31T07:25:58.856Z,21.36
2022-07-31T07:27:02.361Z,21.37
2022-07-31T07:28:06.835Z,21.36
2022-07-31T07:29:10.678Z,21.37
2022-07-31T07:30:13.707Z,21.37
2022-07-31T07:31:16.692Z,21.37
2022-07-31T07:32:19.933Z,21.39
2022-07-31T07:33:41.398Z,21.44
2022-07-31T07:34:48.402Z,21.45
2022-07-31T07:36:23.898Z,21.46
2022-07-31T07:37:39.301Z,21.49
2022-07-31T07:38:43.250Z,21.51
2022-07-31T07:39:47.162Z,21.51
2022-07-31T07:40:50.587Z,21.50
2022-07-31T07:41:53.524Z,21.50
2022-07-31T07:43:01.227Z,21.49
2022-07-31T07:44:06.790Z,21.51
2022-07-31T07:45:10.262Z,21.50
2022-07-31T07:46:13.274Z,21.51
2022-07-31T07:47:18.899Z,21.51
2022-07-31T07:48:22.020Z,21.51
2022-07-31T07:49:49.530Z,21.51
2022-07-31T07:51:10.988Z,21.54
2022-07-31T07:52:28.731Z,21.57
2022-07-31T07:53:37.956Z,21.58
2022-07-31T07:54:59.679Z,21.55
2022-07-31T07:56:21.037Z,21.57
2022-07-31T07:57:44.273Z,21.59
2022-07-31T07:59:05.908Z,21.58
2022-07-31T08:00:44.067Z,21.59
2022-07-31T08:01:47.491Z,21.60
2022-07-31T08:03:04.202Z,21.64
2022-07-31T08:04:18.126Z,21.66
2022-07-31T08:05:22.520Z,21.68
2022-07-31T08:06:25.500Z,21.69
2022-07-31T08:07:42.123Z,21.71
2022-07-31T08:09:08.818Z,21.76
2022-07-31T08:10:30.194Z,21.83
2022-07-31T08:11:42.603Z,21.87
2022-07-31T08:12:54.890Z,21.88
2022-07-31T08:14:30.185Z,21.90
2022-07-31T08:15:59.409Z,21.93
2022-07-31T08:17:12.143Z,21.94
2022-07-31T08:18:17.508Z,21.95
2022-07-31T08:19:20.593Z,21.97
2022-07-31T08:20:26.260Z,21.99
2022-07-31T08:21:29.436Z,22.00
2022-07-31T08:22:32.510Z,22.01
2022-07-31T08:23:35.866Z,22.01
2022-07-31T08:24:39.233Z,22.00
2022-07-31T08:25:42.755Z,21.99
2022-07-31T08:27:04.473Z,22.00
2022-07-31T08:28:19.513Z,22.04
2022-07-31T08:29:28.761Z,22.07
2022-07-31T08:30:43.831Z,22.11
2022-07-31T08:31:49.372Z,22.09
2022-07-31T08:33:25.027Z,22.08
2022-07-31T08:34:32.235Z,22.07
2022-07-31T08:35:38.346Z,22.06
2022-07-31T08:36:42.102Z,22.08
2022-07-31T08:37:52.120Z,22.11
2022-07-31T08:39:06.114Z,22.12
2022-07-31T08:40:25.689Z,22.08
2022-07-31T08:41:28.730Z,22.05
2022-07-31T08:42:32.534Z,22.07
2022-07-31T08:44:03.288Z,22.08
2022-07-31T08:44:59.055Z,22.11
2022-07-31T08:46:05.823Z,22.12
2022-07-31T08:47:15.043Z,22.14
2022-07-31T08:48:21.519Z,22.18
2022-07-31T08:49:26.346Z,22.22
2022-07-31T08:50:30.909Z,22.27
2022-07-31T08:51:51.110Z,22.33
2022-07-31T08:53:33.153Z,22.43
2022-07-31T08:54:43.461Z,22.44
2022-07-31T08:55:57.136Z,22.43
2022-07-31T08:57:02.852Z,22.46
2022-07-31T08:58:06.421Z,22.51
2022-07-31T08:59:09.799Z,22.57
2022-07-31T09:00:17.577Z,22.65
2022-07-31T09:01:20.665Z,22.73
2022-07-31T09:02:23.638Z,22.78
2022-07-31T09:03:56.762Z,22.81
2022-07-31T09:04:59.786Z,22.80
2022-07-31T09:06:03.553Z,22.80
2022-07-31T09:07:10.414Z,22.80
2022-07-31T09:08:15.000Z,22.80
2022-07-31T09:09:20.082Z,22.81
2022-07-31T09:10:24.962Z,22.81
2022-07-31T09:11:28.836Z,22.81
2022-07-31T09:13:12.174Z,22.86
2022-07-31T09:14:24.393Z,22.89
2022-07-31T09:15:31.002Z,22.88
2022-07-31T09:16:46.838Z,22.85
2022-07-31T09:17:51.944Z,22.83
2022-07-31T09:19:01.436Z,22.81
2022-07-31T09:20:05.826Z,22.78
2022-07-31T09:21:10.776Z,22.75
2022-07-31T09:22:27.125Z,22.76
2022-07-31T09:23:32.222Z,22.80
2022-07-31T09:24:36.933Z,22.85
2022-07-31T09:25:52.302Z,22.89
2022-07-31T09:27:05.537Z,22.91
2022-07-31T09:28:09.315Z,22.90
2022-07-31T09:29:13.038Z,22.89
2022-07-31T09:30:16.875Z,22.91
2022-07-31T09:31:32.440Z,22.96
2022-07-31T09:32:57.420Z,23.05
2022-07-31T09:34:27.029Z,23.15
2022-07-31T09:35:52.488Z,23.20
2022-07-31T09:36:55.593Z,23.24
2022-07-31T09:38:41.287Z,23.25
2022-07-31T09:40:02.915Z,23.25
2022-07-31T09:41:58.059Z,23.25
2022-07-31T09:43:19.380Z,23.21
2022-07-31T09:44:25.292Z,23.14
2022-07-31T09:45:32.001Z,23.09
2022-07-31T09:46:41.094Z,23.06
2022-07-31T09:47:45.106Z,23.06
2022-07-31T09:48:59.942Z,23.05
2022-07-31T09:50:04.991Z,23.07
2022-07-31T09:51:09.016Z,23.09
2022-07-31T09:52:19.678Z,23.12
2022-07-31T09:53:22.782Z,23.15
2022-07-31T09:54:29.914Z,23.15
2022-07-31T09:55:51.663Z,23.19
2022-07-31T09:56:56.057Z,23.22
2022-07-31T09:58:00.284Z,23.23
2022-07-31T09:59:12.111Z,23.24
2022-07-31T10:00:17.408Z,23.25
2022-07-31T10:01:21.179Z,23.23
2022-07-31T10:02:26.191Z,23.20
2022-07-31T10:03:30.842Z,23.17
2022-07-31T10:04:37.411Z,23.19
2022-07-31T10:05:43.716Z,23.19
2022-07-31T10:06:48.993Z,23.20
2022-07-31T10:07:53.794Z,23.22
2022-07-31T10:09:05.023Z,23.25
2022-07-31T10:10:33.815Z,23.28
2022-07-31T10:12:01.001Z,23.27
2022-07-31T10:13:08.275Z,23.23
2022-07-31T10:14:17.167Z,23.22
2022-07-31T10:15:20.924Z,23.28
2022-07-31T10:16:45.139Z,23.36
2022-07-31T10:18:35.623Z,23.37
2022-07-31T10:20:09.490Z,23.32
2022-07-31T10:21:38.141Z,23.29
2022-07-31T10:22:49.791Z,23.31
2022-07-31T10:24:04.217Z,23.38
2022-07-31T10:25:13.098Z,23.40
2022-07-31T10:26:17.717Z,23.39
2022-07-31T10:27:26.343Z,23.41
2022-07-31T10:28:38.797Z,23.36
2022-07-31T10:29:49.435Z,23.32
2022-07-31T10:30:52.741Z,23.25
2022-07-31T10:32:01.034Z,23.22
2022-07-31T10:33:22.162Z,23.21
2022-07-31T10:34:49.567Z,23.21
2022-07-31T10:36:21.555Z,23.27
2022-07-31T10:38:15.854Z,23.29
2022-07-31T10:39:31.882Z,23.27
2022-07-31T10:41:10.640Z,23.27
2022-07-31T10:42:35.927Z,23.29
2022-07-31T10:43:48.221Z,23.27
2022-07-31T10:45:10.373Z,23.24
2022-07-31T10:46:31.916Z,23.23
2022-07-31T10:47:57.108Z,23.24
2022-07-31T10:49:48.874Z,23.25
2022-07-31T10:51:10.107Z,23.31
2022-07-31T10:52:34.836Z,23.35
2022-07-31T10:54:11.562Z,23.31
2022-07-31T10:55:43.350Z,23.30
2022-07-31T10:57:03.307Z,23.28
2022-07-31T10:58:19.905Z,23.30
2022-07-31T10:59:32.036Z,23.32
2022-07-31T11:01:09.658Z,23.35
2022-07-31T11:02:33.271Z,23.37
2022-07-31T11:03:49.812Z,23.42
2022-07-31T11:05:08.195Z,23.49
2022-07-31T11:06:40.391Z,23.59
2022-07-31T11:08:12.310Z,23.64
2022-07-31T11:09:27.750Z,23.71
2022-07-31T11:10:49.364Z,23.76
2022-07-31T11:12:18.875Z,23.79
2022-07-31T11:13:46.788Z,23.80
2022-07-31T11:14:59.398Z,23.81
2022-07-31T11:16:30.541Z,23.87
2022-07-31T11:18:22.235Z,23.93
2022-07-31T11:19:20.534Z,24.00
2022-07-31T11:20:28.417Z,24.05
2022-07-31T11:21:39.492Z,24.12
2022-07-31T11:22:43.135Z,24.14
2022-07-31T11:23:57.592Z,24.14
2022-07-31T11:25:06.285Z,24.16
2022-07-31T11:26:10.207Z,24.21
2022-07-31T11:27:13.542Z,24.29
2022-07-31T11:28:23.677Z,24.34
2022-07-31T11:29:59.210Z,24.38
2022-07-31T11:30:52.242Z,24.45
2022-07-31T11:31:55.498Z,24.49
2022-07-31T11:32:58.608Z,24.46
2022-07-31T11:34:04.116Z,24.47
2022-07-31T11:35:08.959Z,24.48
2022-07-31T11:36:21.885Z,24.50
2022-07-31T11:37:30.664Z,24.52
2022-07-31T11:38:52.204Z,24.54
2022-07-31T11:40:09.812Z,24.55
2022-07-31T11:41:13.643Z,24.62
2022-07-31T11:42:18.983Z,24.66
2022-07-31T11:43:26.331Z,24.61
2022-07-31T11:44:29.868Z,24.55
2022-07-31T11:45:35.611Z,24.50
2022-07-31T11:46:38.576Z,24.47
2022-07-31T11:48:10.975Z,24.45
2022-07-31T11:49:05.367Z,24.41
2022-07-31T11:50:10.685Z,24.40
2022-07-31T11:51:18.458Z,24.37
2022-07-31T11:52:30.850Z,24.33
2022-07-31T11:53:41.361Z,24.30
2022-07-31T11:54:44.288Z,24.30
2022-07-31T11:55:48.665Z,24.32
2022-07-31T11:56:54.396Z,24.31
2022-07-31T11:57:57.784Z,24.30
2022-07-31T11:59:00.767Z,24.27
2022-07-31T12:00:26.471Z,24.24
2022-07-31T12:01:30.751Z,24.20
2022-07-31T12:02:33.905Z,24.21
2022-07-31T12:03:38.694Z,24.16
2022-07-31T12:04:41.691Z,24.11
2022-07-31T12:05:45.708Z,24.08
2022-07-31T12:06:54.447Z,24.03
2022-07-31T12:07:57.494Z,23.98
2022-07-31T12:09:00.488Z,23.97
2022-07-31T12:10:04.389Z,23.97
2022-07-31T12:11:12.849Z,23.93
2022-07-31T12:12:19.028Z,23.85
2022-07-31T12:13:22.620Z,23.78
2022-07-31T12:14:35.884Z,23.72
2022-07-31T12:15:39.157Z,23.68
2022-07-31T12:16:42.400Z,23.63
2022-07-31T12:17:46.406Z,23.59
2022-07-31T12:18:50.607Z,23.56
2022-07-31T12:19:57.750Z,23.55
2022-07-31T12:21:04.829Z,23.57
2022-07-31T12:22:18.691Z,23.53
2022-07-31T12:23:38.577Z,23.45
2022-07-31T12:24:44.494Z,23.41
2022-07-31T12:25:47.436Z,23.41
2022-07-31T12:26:51.515Z,23.42
2022-07-31T12:27:55.468Z,23.45
2022-07-31T12:29:04.431Z,23.40
2022-07-31T12:30:17.570Z,23.37
2022-07-31T12:31:20.479Z,23.36
2022-07-31T12:32:24.505Z,23.32
2022-07-31T12:33:28.684Z,23.29
2022-07-31T12:34:38.909Z,23.24
2022-07-31T12:35:56.074Z,23.17
2022-07-31T12:37:06.137Z,23.09
2022-07-31T12:38:30.028Z,23.02
2022-07-31T12:39:50.796Z,22.95
2022-07-31T12:41:04.567Z,22.90
2022-07-31T12:42:07.735Z,22.90
2022-07-31T12:43:10.702Z,22.88
2022-07-31T12:44:14.651Z,22.85
2022-07-31T12:45:28.527Z,22.85
2022-07-31T12:46:37.972Z,22.80
2022-07-31T12:47:40.962Z,22.79
2022-07-31T12:48:46.142Z,22.81
2022-07-31T12:49:49.514Z,22.81
2022-07-31T12:50:52.631Z,22.81
2022-07-31T12:51:55.577Z,22.81
2022-07-31T12:53:00.434Z,22.79
2022-07-31T12:54:05.284Z,22.79
2022-07-31T12:55:08.487Z,22.76
2022-07-31T12:56:12.277Z,22.71
2022-07-31T12:57:15.196Z,22.64
2022-07-31T12:58:18.290Z,22.59
2022-07-31T12:59:21.437Z,22.58
2022-07-31T13:00:25.975Z,22.58
2022-07-31T13:01:29.399Z,22.58
2022-07-31T13:02:32.312Z,22.57
2022-07-31T13:03:46.106Z,22.57
2022-07-31T13:04:49.497Z,22.56
2022-07-31T13:05:52.448Z,22.55
2022-07-31T13:06:56.041Z,22.56
2022-07-31T13:07:59.018Z,22.51
2022-07-31T13:09:02.961Z,22.47
2022-07-31T13:10:19.867Z,22.44
2022-07-31T13:11:46.912Z,22.44
2022-07-31T13:12:51.829Z,22.44
2022-07-31T13:13:56.934Z,22.40
2022-07-31T13:15:01.599Z,22.37
2022-07-31T13:16:04.602Z,22.34
2022-07-31T13:17:07.937Z,22.27
2022-07-31T13:18:11.373Z,22.21
2022-07-31T13:19:15.336Z,22.16
2022-07-31T13:20:18.508Z,22.10
2022-07-31T13:21:24.110Z,22.10
2022-07-31T13:22:27.171Z,22.06
2022-07-31T13:23:30.567Z,22.00
2022-07-31T13:24:33.659Z,21.97
2022-07-31T13:25:36.782Z,21.97
2022-07-31T13:26:40.616Z,21.98
2022-07-31T13:27:43.678Z,21.98
2022-07-31T13:28:46.871Z,21.97
2022-07-31T13:29:49.985Z,21.97
2022-07-31T13:30:55.358Z,21.99
2022-07-31T13:31:58.319Z,21.98
2022-07-31T13:33:01.202Z,22.01
2022-07-31T13:34:04.730Z,22.06
2022-07-31T13:35:26.305Z,22.12
2022-07-31T13:36:35.799Z,22.22
2022-07-31T13:37:43.003Z,22.28
2022-07-31T13:38:45.954Z,22.31
2022-07-31T13:39:49.371Z,22.36
2022-07-31T13:41:10.749Z,22.36
2022-07-31T13:42:13.723Z,22.40
2022-07-31T13:43:17.821Z,22.42
2022-07-31T13:44:20.749Z,22.45
2022-07-31T13:45:24.047Z,22.47
2022-07-31T13:46:27.701Z,22.49
2022-07-31T13:47:51.308Z,22.59
2022-07-31T13:48:54.819Z,22.69
2022-07-31T13:49:57.981Z,22.80
2022-07-31T13:51:02.803Z,22.82
2022-07-31T13:52:06.326Z,22.87
2022-07-31T13:53:09.833Z,22.91
2022-07-31T13:54:12.863Z,22.92
2022-07-31T13:55:16.016Z,22.95
2022-07-31T13:56:36.718Z,22.98
2022-07-31T13:57:43.001Z,23.01
2022-07-31T13:58:46.692Z,23.03
2022-07-31T13:59:49.698Z,23.03
2022-07-31T14:00:52.876Z,23.06
2022-07-31T14:02:13.438Z,23.10
2022-07-31T14:03:18.516Z,23.20
2022-07-31T14:04:24.399Z,23.29
2022-07-31T14:05:29.026Z,23.30
2022-07-31T14:06:31.949Z,23.34
2022-07-31T14:07:45.727Z,23.39
2022-07-31T14:08:57.913Z,23.48
2022-07-31T14:10:00.835Z,23.53
2022-07-31T14:11:03.721Z,23.51
2022-07-31T14:12:08.486Z,23.44
2022-07-31T14:13:12.906Z,23.46
2022-07-31T14:14:20.208Z,23.54
2022-07-31T14:15:30.175Z,23.64
2022-07-31T14:16:33.316Z,23.84
2022-07-31T14:17:40.398Z,24.15
2022-07-31T14:18:44.550Z,24.54
2022-07-31T14:19:47.726Z,25.01
2022-07-31T14:20:50.898Z,25.53
2022-07-31T14:22:06.713Z,26.10
2022-07-31T14:23:14.456Z,26.69
2022-07-31T14:24:18.055Z,27.00
2022-07-31T14:25:21.036Z,27.33
2022-07-31T14:26:24.084Z,27.49
2022-07-31T14:27:27.352Z,27.49
2022-07-31T14:28:32.239Z,27.51
2022-07-31T14:29:36.080Z,27.76
2022-07-31T14:30:46.595Z,27.92
2022-07-31T14:31:54.289Z,28.04
2022-07-31T14:32:57.337Z,28.01
2022-07-31T14:34:00.225Z,27.89
2022-07-31T14:35:08.109Z,27.74
2022-07-31T14:36:12.069Z,27.54
2022-07-31T14:37:14.989Z,27.28
2022-07-31T14:38:27.260Z,27.05
2022-07-31T14:39:33.231Z,26.84
2022-07-31T14:40:36.743Z,26.68
2022-07-31T14:41:39.700Z,26.66
2022-07-31T14:42:43.060Z,26.68
2022-07-31T14:43:46.124Z,26.80
2022-07-31T14:44:49.065Z,26.83
2022-07-31T14:45:52.417Z,26.87